createdAt,value
2023-02-11T00:01:47.823Z,31.11
2023-02-11T00:04:14.595Z,32.79
2023-02-11T00:06:41.350Z,33.58
2023-02-11T00:09:09.272Z,32.41
2023-02-11T00:11:36.382Z,30.78
2023-02-11T00:14:04.118Z,29.14
2023-02-11T00:16:31.517Z,29.96
2023-02-11T00:19:00.855Z,29.80
2023-02-11T00:21:27.610Z,30.29
2023-02-11T00:23:54.257Z,31.70
2023-02-11T00:26:20.997Z,30.42
2023-02-11T00:28:47.359Z,31.81
2023-02-11T00:31:13.847Z,31.35
2023-02-11T00:33:40.318Z,30.68
2023-02-11T00:36:06.713Z,30.28
2023-02-11T00:38:33.129Z,30.18
2023-02-11T00:40:59.471Z,30.27
2023-02-11T00:43:25.864Z,30.70
2023-02-11T00:45:55.082Z,29.57
2023-02-11T00:48:21.451Z,30.19
2023-02-11T00:50:50.175Z,29.88
2023-02-11T00:53:16.777Z,29.69
2023-02-11T00:55:45.833Z,30.04
2023-02-11T00:58:12.436Z,29.71
2023-02-11T01:00:39.445Z,29.91
2023-02-11T01:03:05.911Z,29.60
2023-02-11T01:05:32.377Z,29.11
2023-02-11T01:07:58.842Z,29.51
2023-02-11T01:10:25.211Z,29.67
2023-02-11T01:12:51.680Z,30.32
2023-02-11T01:15:18.079Z,29.40
2023-02-11T01:17:44.805Z,29.60
2023-02-11T01:20:11.210Z,29.91
2023-02-11T01:22:37.619Z,29.81
2023-02-11T01:25:06.012Z,29.61
2023-02-11T01:27:32.395Z,30.51
2023-02-11T01:29:58.915Z,31.16
2023-02-11T01:32:25.737Z,30.20
2023-02-11T01:34:52.131Z,30.63
2023-02-11T01:37:18.735Z,32.30
2023-02-11T01:39:45.110Z,32.86
2023-02-11T01:42:13.692Z,32.84
2023-02-11T01:44:41.076Z,31.97
2023-02-11T01:47:07.439Z,30.51
2023-02-11T01:49:33.841Z,30.84
2023-02-11T01:52:02.146Z,30.98
2023-02-11T01:54:28.537Z,30.17
2023-02-11T01:56:55.302Z,30.79
2023-02-11T01:59:21.694Z,30.53
2023-02-11T02:01:48.127Z,29.30
2023-02-11T02:04:14.488Z,28.89
2023-02-11T02:06:41.425Z,28.99
2023-02-11T02:09:07.883Z,28.57
2023-02-11T02:11:34.268Z,28.51
2023-02-11T02:14:00.669Z,28.31
2023-02-11T02:16:29.471Z,28.10
2023-02-11T02:18:57.880Z,28.57
2023-02-11T02:21:25.838Z,27.06
2023-02-11T02:23:56.549Z,27.72
2023-02-11T02:26:23.117Z,28.13
2023-02-11T02:28:49.500Z,27.92
2023-02-11T02:31:15.881Z,29.47
2023-02-11T02:33:42.281Z,29.85
2023-02-11T02:36:08.664Z,29.67
2023-02-11T02:38:35.064Z,30.24
2023-02-11T02:41:01.470Z,31.51
2023-02-11T02:43:28.074Z,32.40
2023-02-11T02:45:55.663Z,33.44
2023-02-11T02:48:22.230Z,31.69
2023-02-11T02:50:48.661Z,32.07
2023-02-11T02:53:18.089Z,31.98
2023-02-11T02:55:45.123Z,32.02
2023-02-11T02:58:14.300Z,31.60
2023-02-11T03:00:43.804Z,30.98
2023-02-11T03:03:10.317Z,29.49
2023-02-11T03:05:36.700Z,29.51
2023-02-11T03:08:03.119Z,28.92
2023-02-11T03:10:30.501Z,29.94
2023-02-11T03:12:56.980Z,29.97
2023-02-11T03:15:23.355Z,29.38
2023-02-11T03:17:49.736Z,29.48
2023-02-11T03:20:16.137Z,27.87
2023-02-11T03:22:42.853Z,27.19
2023-02-11T03:25:09.601Z,26.06
2023-02-11T03:27:36.016Z,26.45
2023-02-11T03:30:02.411Z,28.15
2023-02-11T03:32:28.762Z,29.33
2023-02-11T03:34:55.408Z,28.23
2023-02-11T03:37:21.770Z,27.75
2023-02-11T03:39:48.283Z,27.47
2023-02-11T03:42:15.679Z,28.77
2023-02-11T03:44:42.103Z,29.54
2023-02-11T03:47:09.205Z,27.99
2023-02-11T03:49:35.579Z,26.95
2023-02-11T03:52:01.922Z,25.20
2023-02-11T03:54:28.325Z,23.39
2023-02-11T03:56:54.666Z,23.39
2023-02-11T03:59:21.043Z,23.42
2023-02-11T04:01:49.486Z,23.86
2023-02-11T04:04:15.916Z,22.76
2023-02-11T04:06:42.380Z,22.95
2023-02-11T04:09:08.772Z,21.43
2023-02-11T04:11:35.387Z,21.74
2023-02-11T04:14:02.201Z,22.24
2023-02-11T04:16:28.668Z,22.95
2023-02-11T04:18:55.095Z,22.88
2023-02-11T04:21:26.242Z,22.85
2023-02-11T04:23:53.074Z,21.87
2023-02-11T04:26:19.522Z,22.32
2023-02-11T04:28:46.255Z,22.05
2023-02-11T04:31:14.692Z,21.23
2023-02-11T04:33:42.108Z,21.81
2023-02-11T04:36:08.737Z,21.94
2023-02-11T04:38:35.837Z,21.22
2023-02-11T04:41:02.195Z,21.14
2023-02-11T04:43:28.599Z,20.09
2023-02-11T04:45:55.205Z,20.31
2023-02-11T04:48:21.728Z,19.88
2023-02-11T04:50:48.122Z,18.90
2023-02-11T04:53:15.539Z,18.63
2023-02-11T04:55:42.077Z,17.64
2023-02-11T04:58:08.547Z,17.07
2023-02-11T05:00:34.949Z,17.77
2023-02-11T05:03:01.568Z,18.04
2023-02-11T05:05:28.209Z,18.39
2023-02-11T05:07:54.923Z,18.88
2023-02-11T05:10:21.302Z,20.12
2023-02-11T05:12:49.862Z,19.72
2023-02-11T05:15:19.813Z,20.46
2023-02-11T05:17:46.278Z,20.60
2023-02-11T05:20:12.671Z,23.61
2023-02-11T05:22:39.104Z,23.60
2023-02-11T05:25:05.820Z,22.91
2023-02-11T05:27:32.328Z,23.32
2023-02-11T05:29:58.854Z,23.56
2023-02-11T05:32:25.278Z,24.38
2023-02-11T05:34:51.922Z,24.87
2023-02-11T05:37:18.354Z,23.58
2023-02-11T05:39:44.740Z,21.74
2023-02-11T05:42:11.116Z,23.26
2023-02-11T05:44:37.986Z,24.78
2023-02-11T05:47:05.053Z,24.92
2023-02-11T05:49:31.528Z,24.32
2023-02-11T05:51:57.919Z,22.07
2023-02-11T05:54:24.304Z,22.37
2023-02-11T05:56:50.809Z,22.26
2023-02-11T05:59:17.159Z,22.21
2023-02-11T06:01:43.501Z,21.43
2023-02-11T06:04:09.912Z,20.94
2023-02-11T06:06:36.468Z,19.41
2023-02-11T06:09:02.901Z,19.15
2023-02-11T06:11:29.324Z,18.77
2023-02-11T06:13:55.682Z,16.80
2023-02-11T06:16:22.155Z,16.45
2023-02-11T06:18:48.566Z,15.95
2023-02-11T06:21:15.269Z,17.59
2023-02-11T06:23:41.649Z,22.92
2023-02-11T06:26:08.044Z,22.59
2023-02-11T06:28:36.610Z,20.68
2023-02-11T06:31:03.110Z,18.31
2023-02-11T06:33:29.782Z,18.44
2023-02-11T06:35:56.460Z,20.15
2023-02-11T06:38:22.836Z,18.92
2023-02-11T06:40:49.174Z,19.41
2023-02-11T06:43:16.571Z,20.71
2023-02-11T06:45:42.929Z,21.56
2023-02-11T06:48:09.323Z,22.04
2023-02-11T06:50:36.145Z,22.14
2023-02-11T06:53:02.479Z,21.81
2023-02-11T06:55:28.826Z,19.18
2023-02-11T06:57:55.227Z,19.74
2023-02-11T07:00:21.605Z,21.74
2023-02-11T07:02:48.104Z,21.97
2023-02-11T07:05:14.629Z,20.72
2023-02-11T07:07:41.012Z,18.48
2023-02-11T07:10:09.226Z,18.86
2023-02-11T07:12:43.165Z,19.01
2023-02-11T07:15:09.903Z,17.74
2023-02-11T07:17:37.397Z,18.87
2023-02-11T07:20:04.698Z,19.73
2023-02-11T07:22:31.160Z,18.40
2023-02-11T07:24:57.640Z,17.59
2023-02-11T07:27:24.018Z,17.35
2023-02-11T07:29:50.433Z,16.10
2023-02-11T07:32:16.939Z,17.53
2023-02-11T07:34:43.445Z,17.72
2023-02-11T07:37:10.293Z,18.56
2023-02-11T07:39:38.889Z,19.39
2023-02-11T07:42:05.282Z,18.72
2023-02-11T07:44:31.638Z,18.66
2023-02-11T07:46:58.048Z,19.07
2023-02-11T07:49:24.457Z,19.33
2023-02-11T07:51:50.799Z,20.99
2023-02-11T07:54:17.178Z,22.03
2023-02-11T07:56:43.540Z,22.65
2023-02-11T07:59:12.326Z,22.02
2023-02-11T08:01:38.696Z,22.60
2023-02-11T08:04:05.202Z,23.00
2023-02-11T08:06:31.900Z,23.78
2023-02-11T08:09:00.347Z,23.01
2023-02-11T08:11:26.704Z,22.70
2023-02-11T08:13:53.102Z,22.84
2023-02-11T08:16:19.508Z,22.38
2023-02-11T08:18:45.977Z,22.25
2023-02-11T08:21:13.786Z,22.55
2023-02-11T08:23:40.161Z,24.26
2023-02-11T08:26:07.393Z,24.32
2023-02-11T08:28:33.848Z,24.26
2023-02-11T08:31:02.338Z,24.31
2023-02-11T08:33:28.739Z,24.71
2023-02-11T08:35:55.506Z,23.84
2023-02-11T08:38:23.204Z,22.86
2023-02-11T08:40:49.879Z,23.13
2023-02-11T08:43:16.429Z,22.47
2023-02-11T08:45:42.835Z,21.84
2023-02-11T08:48:10.627Z,22.99
2023-02-11T08:50:37.310Z,22.26
2023-02-11T08:53:03.657Z,22.58
2023-02-11T08:55:31.059Z,23.14
2023-02-11T08:57:57.898Z,22.79
2023-02-11T09:00:24.320Z,22.81
2023-02-11T09:02:50.725Z,24.04
2023-02-11T09:05:19.230Z,22.51
2023-02-11T09:07:45.627Z,22.43
2023-02-11T09:10:12.244Z,22.47
2023-02-11T09:12:38.635Z,22.26
2023-02-11T09:15:05.028Z,20.90
2023-02-11T09:17:31.384Z,19.93
2023-02-11T09:19:58.997Z,20.60
2023-02-11T09:22:25.330Z,19.45
2023-02-11T09:24:51.713Z,19.87
2023-02-11T09:27:20.400Z,19.73
2023-02-11T09:29:46.762Z,20.34
2023-02-11T09:32:14.225Z,20.08
2023-02-11T09:34:40.708Z,18.52
2023-02-11T09:37:07.099Z,17.56
2023-02-11T09:39:33.501Z,18.60
2023-02-11T09:42:00.023Z,18.60
2023-02-11T09:44:26.544Z,18.53
2023-02-11T09:46:52.934Z,18.36
2023-02-11T09:49:19.330Z,18.88
2023-02-11T09:51:45.695Z,18.55
2023-02-11T09:54:12.334Z,18.29
2023-02-11T09:56:38.717Z,18.53
2023-02-11T09:59:05.071Z,18.87
2023-02-11T10:01:31.868Z,18.55
2023-02-11T10:03:58.285Z,17.36
2023-02-11T10:06:25.724Z,17.87
2023-02-11T10:08:52.112Z,17.51
2023-02-11T10:11:31.200Z,16.84
2023-02-11T10:14:03.307Z,17.76
2023-02-11T10:16:29.648Z,17.87
2023-02-11T10:18:55.995Z,16.93
2023-02-11T10:21:22.354Z,18.31
2023-02-11T10:23:48.749Z,19.19
2023-02-11T10:26:17.882Z,18.89
2023-02-11T10:28:45.049Z,18.62
2023-02-11T10:31:15.913Z,19.12
2023-02-11T10:33:43.203Z,19.64
2023-02-11T10:36:09.598Z,19.12
2023-02-11T10:38:35.954Z,20.07
2023-02-11T10:41:02.308Z,20.00
2023-02-11T10:43:28.961Z,19.76
2023-02-11T10:45:55.354Z,19.41
2023-02-11T10:48:21.835Z,18.41
2023-02-11T10:50:50.784Z,17.95
2023-02-11T10:53:22.921Z,18.07
2023-02-11T10:55:49.322Z,18.03
2023-02-11T10:58:15.741Z,18.04
2023-02-11T11:00:42.125Z,18.41
2023-02-11T11:03:08.488Z,19.13
2023-02-11T11:05:34.863Z,20.49
2023-02-11T11:08:01.261Z,18.94
2023-02-11T11:10:27.667Z,17.66
2023-02-11T11:12:54.291Z,18.35
2023-02-11T11:15:20.654Z,18.28
2023-02-11T11:17:47.049Z,18.91
2023-02-11T11:20:13.447Z,17.96
2023-02-11T11:22:39.805Z,18.54
2023-02-11T11:25:13.336Z,18.33
2023-02-11T11:27:39.775Z,18.58
2023-02-11T11:30:06.168Z,18.71
2023-02-11T11:32:32.677Z,18.90
2023-02-11T11:35:01.897Z,19.00
2023-02-11T11:37:28.353Z,18.29
2023-02-11T11:39:54.820Z,18.24
2023-02-11T11:42:21.207Z,18.38
2023-02-11T11:44:48.242Z,17.44
2023-02-11T11:47:14.659Z,18.34
2023-02-11T11:49:41.046Z,17.88
2023-02-11T11:52:09.143Z,16.37
2023-02-11T11:54:35.712Z,17.65
2023-02-11T11:57:06.382Z,17.00
2023-02-11T11:59:32.739Z,17.91
2023-02-11T12:02:00.235Z,17.27
2023-02-11T12:04:26.685Z,17.19
2023-02-11T12:06:53.044Z,16.77
2023-02-11T12:09:19.413Z,15.85
2023-02-11T12:11:46.831Z,16.59
2023-02-11T12:14:13.241Z,16.84
2023-02-11T12:16:39.632Z,16.39
2023-02-11T12:19:06.041Z,16.33
2023-02-11T12:21:43.700Z,17.10
2023-02-11T12:24:22.755Z,15.60
2023-02-11T12:26:49.140Z,16.67
2023-02-11T12:29:15.536Z,16.39
2023-02-11T12:31:41.963Z,15.32
2023-02-11T12:34:09.281Z,16.30
2023-02-11T12:36:35.680Z,15.89
2023-02-11T12:39:02.254Z,16.40
2023-02-11T12:41:29.838Z,16.84
2023-02-11T12:43:56.258Z,15.63
2023-02-11T12:46:26.707Z,15.53
2023-02-11T12:48:55.711Z,15.75
2023-02-11T12:51:22.098Z,16.56
2023-02-11T12:53:48.439Z,16.31
2023-02-11T12:56:15.136Z,16.09
2023-02-11T12:58:45.699Z,15.52
2023-02-11T13:01:12.365Z,17.09
2023-02-11T13:03:38.753Z,16.98
2023-02-11T13:06:05.311Z,16.19
2023-02-11T13:08:31.719Z,16.08
2023-02-11T13:10:58.190Z,16.38
2023-02-11T13:16:05.258Z,16.08
2023-02-11T13:18:31.876Z,15.88
2023-02-11T13:20:58.535Z,15.47
2023-02-11T13:23:24.901Z,15.78
2023-02-11T13:25:51.330Z,16.20
2023-02-11T13:28:18.009Z,16.09
2023-02-11T13:30:44.723Z,15.32
2023-02-11T13:33:11.394Z,15.34
2023-02-11T13:35:37.780Z,14.79
2023-02-11T13:38:04.349Z,15.14
2023-02-11T13:40:36.731Z,15.44
2023-02-11T13:43:03.196Z,15.75
2023-02-11T13:45:29.539Z,15.82
2023-02-11T13:47:55.929Z,16.02
2023-02-11T13:50:22.406Z,15.72
2023-02-11T13:52:48.958Z,15.36
2023-02-11T13:55:15.440Z,14.33
2023-02-11T13:57:42.510Z,14.08
2023-02-11T14:00:09.188Z,14.26
2023-02-11T14:02:36.321Z,14.51
2023-02-11T14:05:02.801Z,14.42
2023-02-11T14:07:29.169Z,14.93
2023-02-11T14:09:55.657Z,14.02
2023-02-11T14:12:24.284Z,13.87
2023-02-11T14:14:51.029Z,13.87
2023-02-11T14:17:17.478Z,14.67
2023-02-11T14:19:45.176Z,14.67
2023-02-11T14:22:11.547Z,14.26
2023-02-11T14:24:38.249Z,13.67
2023-02-11T14:27:04.816Z,14.25
2023-02-11T14:29:31.328Z,14.42
2023-02-11T14:31:57.791Z,13.79
2023-02-11T14:34:26.672Z,13.86
2023-02-11T14:36:53.723Z,14.94
2023-02-11T14:39:20.209Z,14.87
2023-02-11T14:41:46.802Z,14.24
2023-02-11T14:44:13.273Z,13.88
2023-02-11T14:46:39.693Z,13.64
2023-02-11T14:49:06.424Z,14.12
2023-02-11T14:51:32.924Z,13.47
2023-02-11T14:53:59.361Z,13.20
2023-02-11T14:56:25.877Z,12.95
2023-02-11T14:58:52.460Z,13.36
2023-02-11T15:01:18.846Z,12.90
2023-02-11T15:03:45.599Z,13.54
2023-02-11T15:06:14.726Z,13.53
2023-02-11T15:08:41.732Z,13.10
2023-02-11T15:11:08.079Z,12.30
2023-02-11T15:13:34.683Z,12.67
2023-02-11T15:16:01.119Z,12.48
2023-02-11T15:18:27.501Z,12.39
2023-02-11T15:20:54.081Z,15.28
2023-02-11T15:23:20.576Z,15.61
2023-02-11T15:25:46.920Z,15.12
2023-02-11T15:28:13.326Z,14.39
2023-02-11T15:30:39.693Z,15.38
2023-02-11T15:33:06.113Z,17.93
2023-02-11T15:35:32.464Z,18.01
2023-02-11T15:37:58.807Z,18.71
2023-02-11T15:40:25.149Z,18.53
2023-02-11T15:42:53.577Z,17.51
2023-02-11T15:45:20.558Z,18.28
2023-02-11T15:47:46.891Z,17.74
2023-02-11T15:50:13.227Z,17.87
2023-02-11T15:52:39.598Z,18.91
2023-02-11T15:55:05.946Z,20.21
2023-02-11T15:57:32.304Z,19.66
2023-02-11T15:59:58.712Z,19.69
2023-02-11T16:02:25.106Z,19.93
2023-02-11T16:04:51.470Z,19.55
2023-02-11T16:07:17.853Z,20.25
2023-02-11T16:09:44.239Z,20.80
2023-02-11T16:12:10.633Z,21.04
2023-02-11T16:14:37.034Z,21.04
2023-02-11T16:17:04.372Z,20.33
2023-02-11T16:19:30.708Z,21.09
2023-02-11T16:21:57.051Z,20.76
2023-02-11T16:24:26.615Z,19.86
2023-02-11T16:26:56.300Z,19.64
2023-02-11T16:29:25.852Z,20.25
2023-02-11T16:31:52.352Z,18.73
2023-02-11T16:34:18.808Z,20.22
2023-02-11T16:36:45.386Z,22.88
2023-02-11T16:39:11.725Z,24.04
2023-02-11T16:41:38.355Z,24.39
2023-02-11T16:44:04.725Z,24.97
2023-02-11T16:46:31.166Z,24.59
2023-02-11T16:48:57.682Z,23.26
2023-02-11T16:51:24.269Z,22.66
2023-02-11T16:53:51.654Z,21.26
2023-02-11T16:56:18.072Z,21.53
2023-02-11T16:58:44.638Z,24.32
2023-02-11T17:01:13.522Z,23.46
2023-02-11T17:03:41.651Z,29.36
2023-02-11T17:06:08.022Z,26.95
2023-02-11T17:08:36.879Z,23.82
2023-02-11T17:11:03.263Z,24.98
2023-02-11T17:13:29.681Z,27.60
2023-02-11T17:15:56.437Z,28.70
2023-02-11T17:18:22.841Z,29.61
2023-02-11T17:20:49.232Z,30.07
2023-02-11T17:23:15.621Z,27.98
2023-02-11T17:25:45.266Z,28.29
2023-02-11T17:28:11.734Z,29.82
2023-02-11T17:30:38.370Z,32.87
2023-02-11T17:33:04.775Z,33.93
2023-02-11T17:35:32.432Z,32.54
2023-02-11T17:37:59.022Z,30.10
2023-02-11T17:40:25.745Z,32.29
2023-02-11T17:42:52.211Z,35.15
2023-02-11T17:45:21.180Z,31.87
2023-02-11T17:47:48.729Z,29.21
2023-02-11T17:50:15.088Z,28.32
2023-02-11T17:52:41.426Z,29.57
2023-02-11T17:55:08.074Z,30.98
2023-02-11T17:57:34.829Z,34.00
2023-02-11T18:00:01.483Z,35.60
2023-02-11T18:02:27.931Z,36.32
2023-02-11T18:04:54.410Z,35.23
2023-02-11T18:07:23.664Z,32.56
2023-02-11T18:09:50.022Z,30.75
2023-02-11T18:12:24.333Z,30.91
2023-02-11T18:14:50.912Z,31.43
2023-02-11T18:17:17.789Z,31.11
2023-02-11T18:19:46.922Z,29.92
2023-02-11T18:22:13.814Z,27.08
2023-02-11T18:24:40.302Z,26.37
2023-02-11T18:27:07.123Z,25.87
2023-02-11T18:29:35.856Z,24.11
2023-02-11T18:45:33.452Z,25.65
2023-02-11T18:56:34.672Z,27.02
2023-02-11T18:59:01.096Z,26.95
2023-02-11T19:01:28.267Z,26.21
2023-02-11T19:03:55.461Z,26.07
2023-02-11T19:06:22.951Z,24.68
2023-02-11T19:08:50.342Z,23.98
2023-02-11T19:11:16.985Z,24.02
2023-02-11T19:13:43.635Z,26.47
2023-02-11T19:16:11.458Z,26.01
2023-02-11T19:18:39.144Z,26.12
2023-02-11T19:21:05.819Z,25.26
2023-02-11T19:23:32.224Z,24.43
2023-02-11T19:25:58.923Z,26.69
2023-02-11T19:28:29.712Z,28.77
2023-02-11T20:21:29.739Z,28.88
2023-02-11T20:23:58.928Z,27.32
2023-02-11T20:26:26.296Z,27.69
2023-02-11T20:58:58.700Z,28.86
2023-02-11T21:04:15.581Z,26.17
2023-02-11T23:10:51.351Z,24.34
2023-02-11T23:13:17.712Z,23.95
2023-02-11T23:15:44.352Z,24.21
2023-02-11T23:18:10.711Z,24.22
2023-02-11T23:20:37.342Z,23.45
2023-02-11T23:23:03.712Z,23.84
2023-02-11T23:25:33.216Z,24.26
2023-02-11T23:28:02.117Z,24.69
2023-02-11T23:30:29.351Z,21.72
2023-02-11T23:33:00.196Z,22.60
2023-02-11T23:35:27.755Z,23.22
2023-02-11T23:37:54.137Z,23.63
2023-02-11T23:40:20.491Z,21.85
2023-02-11T23:42:49.022Z,22.62
2023-02-11T23:45:15.717Z,21.55
2023-02-11T23:47:42.526Z,20.32
2023-02-11T23:50:11.928Z,21.17
2023-02-11T23:52:40.668Z,21.42
2023-02-11T23:55:08.375Z,22.56
2023-02-11T23:57:34.794Z,22.22
